Time;durP1;ratioP1;P1;durP2;ratioP2;P2;SDS_P1;SDS_P2;PMS_P1;PMS_P2;Temp;Humidity;BMP_temperature;BMP_pressure;BME280_temperature;BME280_humidity;BME280_pressure;Samples;Min_cycle;Max_cycle;Signal;HPM_P1;HPM_P2
2021/08/17 00:01:24;0.00;0.00;0.62;0.00;0.00;0.62;5.37;2.23;;;24.60;33.00;;;;;;2258072;61;20363;-56
2021/08/17 00:04:10;0.00;0.00;0.62;0.00;0.00;0.62;2.93;1.70;;;24.60;33.00;;;;;;2256906;61;20734;-52
2021/08/17 00:06:54;0.00;0.00;0.62;0.00;0.00;0.62;6.63;2.40;;;24.60;33.00;;;;;;2258058;61;20378;-57
2021/08/17 00:09:39;0.00;0.00;0.62;0.00;0.00;0.62;4.50;2.13;;;24.50;33.00;;;;;;2257917;61;20406;-53
2021/08/17 00:12:23;0.00;0.00;0.62;0.00;0.00;0.62;8.53;1.73;;;24.50;33.00;;;;;;2257870;61;20354;-55
2021/08/17 00:15:09;0.00;0.00;0.62;0.00;0.00;0.62;4.20;1.47;;;24.40;33.10;;;;;;2257919;61;20453;-54
2021/08/17 00:17:54;0.00;0.00;0.62;0.00;0.00;0.62;7.20;2.23;;;24.40;33.20;;;;;;2256775;61;20382;-56
2021/08/17 00:20:40;0.00;0.00;0.62;0.00;0.00;0.62;3.93;2.13;;;24.40;33.40;;;;;;2258177;61;20379;-53
2021/08/17 00:23:25;0.00;0.00;0.62;0.00;0.00;0.62;4.07;1.90;;;24.30;33.40;;;;;;2258030;61;20362;-49
2021/08/17 00:26:10;0.00;0.00;0.62;0.00;0.00;0.62;5.93;2.10;;;24.30;33.50;;;;;;2257034;61;20410;-55
2021/08/17 00:28:54;0.00;0.00;0.62;0.00;0.00;0.62;4.00;1.90;;;24.30;33.60;;;;;;2257940;61;20406;-51
2021/08/17 00:31:39;0.00;0.00;0.62;0.00;0.00;0.62;3.07;1.70;;;24.30;33.70;;;;;;2258039;61;20367;-51
2021/08/17 00:34:23;0.00;0.00;0.62;0.00;0.00;0.62;3.53;2.00;;;24.30;33.80;;;;;;2256905;61;20472;-51
2021/08/17 00:37:09;0.00;0.00;0.62;0.00;0.00;0.62;3.30;1.50;;;24.30;33.80;;;;;;2257916;61;20371;-52
2021/08/17 00:39:54;0.00;0.00;0.62;0.00;0.00;0.62;2.90;1.57;;;24.30;33.90;;;;;;2257159;61;20367;-55
2021/08/17 00:42:40;0.00;0.00;0.62;0.00;0.00;0.62;3.77;1.70;;;24.30;34.00;;;;;;2258075;61;20378;-54
2021/08/17 00:45:27;0.00;0.00;0.62;0.00;0.00;0.62;2.93;1.40;;;24.30;34.00;;;;;;2257956;61;20355;-50
2021/08/17 00:48:11;0.00;0.00;0.62;0.00;0.00;0.62;3.13;1.77;;;24.30;34.10;;;;;;2256694;61;20746;-52
2021/08/17 00:50:56;0.00;0.00;0.62;0.00;0.00;0.62;4.57;1.60;;;24.30;34.20;;;;;;2257991;61;20371;-52
2021/08/17 00:53:43;0.00;0.00;0.62;0.00;0.00;0.62;4.10;1.50;;;24.30;34.20;;;;;;2257506;61;20398;-52
2021/08/17 00:56:27;0.00;0.00;0.62;0.00;0.00;0.62;4.70;1.87;;;24.30;34.20;;;;;;2256425;61;20610;-54
2021/08/17 00:59:12;0.00;0.00;0.62;0.00;0.00;0.62;4.17;2.20;;;24.30;34.30;;;;;;2257974;61;20395;-53
2021/08/17 01:01:56;0.00;0.00;0.62;0.00;0.00;0.62;2.60;1.57;;;24.20;34.30;;;;;;2257200;61;20439;-51
2021/08/17 01:04:41;0.00;0.00;0.62;0.00;0.00;0.62;5.43;1.87;;;24.20;34.30;;;;;;2257883;61;20402;-53
2021/08/17 01:07:26;0.00;0.00;0.62;0.00;0.00;0.62;5.40;2.07;;;24.20;34.30;;;;;;2257777;61;20379;-51
2021/08/17 01:10:13;0.00;0.00;0.62;0.00;0.00;0.62;4.57;2.10;;;24.20;34.40;;;;;;2256887;61;20436;-50
2021/08/17 01:12:57;0.00;0.00;0.62;0.00;0.00;0.62;3.70;2.03;;;24.20;34.40;;;;;;2257938;61;20459;-50
2021/08/17 01:15:42;0.00;0.00;0.62;0.00;0.00;0.62;3.00;1.93;;;24.20;34.40;;;;;;2257777;61;20403;-52
2021/08/17 01:18:26;0.00;0.00;0.62;0.00;0.00;0.62;5.67;2.77;;;24.20;34.50;;;;;;2256589;61;20383;-53
2021/08/17 01:21:11;0.00;0.00;0.62;0.00;0.00;0.62;4.97;1.87;;;24.20;34.50;;;;;;2257873;61;20393;-51
2021/08/17 01:23:56;0.00;0.00;0.62;0.00;0.00;0.62;4.20;1.60;;;24.20;34.50;;;;;;2257152;61;20459;-53
2021/08/17 01:26:44;0.00;0.00;0.62;0.00;0.00;0.62;5.07;2.13;;;24.30;34.60;;;;;;2257507;61;20363;-55
2021/08/17 01:29:29;0.00;0.00;0.62;0.00;0.00;0.62;7.00;2.70;;;24.20;34.60;;;;;;2257872;61;20417;-52
2021/08/17 01:32:17;0.00;0.00;0.62;0.00;0.00;0.62;7.60;2.47;;;24.20;34.70;;;;;;2256743;61;20374;-51
2021/08/17 01:35:01;0.00;0.00;0.62;0.00;0.00;0.62;3.07;1.73;;;24.20;34.70;;;;;;2257544;61;20665;-54
2021/08/17 01:37:46;0.00;0.00;0.62;0.00;0.00;0.62;2.30;1.70;;;24.20;34.70;;;;;;2257527;61;20399;-50
2021/08/17 01:40:30;0.00;0.00;0.62;0.00;0.00;0.62;6.97;2.37;;;24.20;34.70;;;;;;2256830;61;20620;-51
2021/08/17 01:43:17;0.00;0.00;0.62;0.00;0.00;0.62;4.13;1.90;;;24.20;34.80;;;;;;2257780;61;20394;-53
2021/08/17 01:46:03;0.00;0.00;0.62;0.00;0.00;0.62;4.93;2.60;;;24.20;34.80;;;;;;2257585;61;20451;-56
2021/08/17 01:48:48;0.00;0.00;0.62;0.00;0.00;0.62;9.10;2.23;;;24.20;35.00;;;;;;2257270;61;20421;-52
2021/08/17 01:51:33;0.00;0.00;0.62;0.00;0.00;0.62;6.47;2.40;;;24.20;35.00;;;;;;2257907;61;20362;-51
2021/08/17 01:54:18;0.00;0.00;0.62;0.00;0.00;0.62;6.50;2.20;;;24.20;35.00;;;;;;2256504;61;20793;-51
2021/08/17 01:57:03;0.00;0.00;0.62;0.00;0.00;0.62;4.27;2.20;;;24.20;35.00;;;;;;2257259;61;20434;-52
2021/08/17 01:59:50;0.00;0.00;0.62;0.00;0.00;0.62;5.60;2.37;;;24.20;35.00;;;;;;2257885;61;20641;-52
2021/08/17 02:02:36;0.00;0.00;0.62;0.00;0.00;0.62;4.60;2.00;;;24.20;35.00;;;;;;2256166;61;20371;-51
2021/08/17 02:05:02;0.00;0.00;0.62;0.00;0.00;0.62;5.03;2.40;;;24.20;35.00;;;;;;2257901;61;20344;-51
2021/08/17 02:07:47;0.00;0.00;0.62;0.00;0.00;0.62;4.97;1.90;;;24.20;35.00;;;;;;2257725;61;20759;-51
2021/08/17 02:10:32;0.00;0.00;0.62;0.00;0.00;0.62;4.33;1.77;;;24.20;35.10;;;;;;2256545;61;20354;-52
2021/08/17 02:13:17;0.00;0.00;0.62;0.00;0.00;0.62;9.80;2.80;;;24.20;35.10;;;;;;2257830;61;20370;-50
2021/08/17 02:16:04;0.00;0.00;0.62;0.00;0.00;0.62;6.00;2.30;;;24.20;35.10;;;;;;2256973;61;20406;-50
2021/08/17 02:18:48;0.00;0.00;0.62;0.00;0.00;0.62;4.30;2.43;;;24.20;35.10;;;;;;2257494;61;20395;-54
2021/08/17 02:21:33;0.00;0.00;0.62;0.00;0.00;0.62;5.90;2.40;;;24.20;35.10;;;;;;2257795;61;20394;-55
2021/08/17 02:24:18;0.00;0.00;0.62;0.00;0.00;0.62;5.23;2.93;;;24.20;35.20;;;;;;2256423;61;20371;-56
2021/08/17 02:27:04;0.00;0.00;0.62;0.00;0.00;0.62;5.33;2.37;;;24.20;35.10;;;;;;2257594;61;20694;-51
2021/08/17 02:29:48;0.00;0.00;0.62;0.00;0.00;0.62;6.30;2.83;;;24.30;35.20;;;;;;2257671;61;20386;-54
2021/08/17 02:32:34;0.00;0.00;0.62;0.00;0.00;0.62;6.17;2.80;;;24.20;35.10;;;;;;2256613;61;20406;-52
2021/08/17 02:35:19;0.00;0.00;0.62;0.00;0.00;0.62;5.43;2.47;;;24.20;35.20;;;;;;2257540;61;20382;-55
2021/08/17 02:38:05;0.00;0.00;0.62;0.00;0.00;0.62;5.90;2.40;;;24.30;35.30;;;;;;2256734;61;20386;-53
2021/08/17 02:40:49;0.00;0.00;0.62;0.00;0.00;0.62;10.37;4.37;;;24.30;35.30;;;;;;2257730;61;20362;-51
2021/08/17 02:43:34;0.00;0.00;0.62;0.00;0.00;0.62;5.93;2.40;;;24.30;35.30;;;;;;2257690;61;20402;-52
2021/08/17 02:46:18;0.00;0.00;0.62;0.00;0.00;0.62;10.13;3.10;;;24.30;35.30;;;;;;2256462;61;20390;-53
2021/08/17 02:49:05;0.00;0.00;0.62;0.00;0.00;0.62;7.63;3.00;;;24.20;35.30;;;;;;2257648;61;20375;-50
2021/08/17 02:51:50;0.00;0.00;0.62;0.00;0.00;0.62;6.30;2.97;;;24.20;35.20;;;;;;2258308;61;20362;-52
2021/08/17 02:54:39;0.00;0.00;0.62;0.00;0.00;0.62;6.83;2.43;;;24.20;35.20;;;;;;2257036;61;20390;-51
2021/08/17 02:57:23;0.00;0.00;0.62;0.00;0.00;0.62;8.80;3.20;;;24.20;35.20;;;;;;2258342;61;20363;-52
2021/08/17 03:00:10;0.00;0.00;0.62;0.00;0.00;0.62;7.97;2.87;;;24.20;35.20;;;;;;2257514;61;20355;-52
2021/08/17 03:02:55;0.00;0.00;0.62;0.00;0.00;0.62;5.27;2.03;;;24.20;35.30;;;;;;2258185;61;20362;-50
2021/08/17 03:05:40;0.00;0.00;0.62;0.00;0.00;0.62;8.17;2.80;;;24.20;35.20;;;;;;2258279;61;20727;-51
2021/08/17 03:08:25;0.00;0.00;0.62;0.00;0.00;0.62;6.03;2.47;;;24.20;35.20;;;;;;2256983;61;20391;-53
2021/08/17 03:11:09;0.00;0.00;0.62;0.00;0.00;0.62;4.70;2.73;;;24.20;35.20;;;;;;2258357;61;20381;-50
2021/08/17 03:13:57;0.00;0.00;0.62;0.00;0.00;0.62;7.20;2.80;;;24.20;35.20;;;;;;2258248;61;20366;-51
2021/08/17 03:16:42;0.00;0.00;0.62;0.00;0.00;0.62;6.30;2.30;;;24.20;35.20;;;;;;2257204;61;20366;-50
2021/08/17 03:19:26;0.00;0.00;0.62;0.00;0.00;0.62;11.30;2.63;;;24.20;35.20;;;;;;2258205;61;20383;-52
2021/08/17 03:22:12;0.00;0.00;0.62;0.00;0.00;0.62;6.07;2.77;;;24.20;35.20;;;;;;2258268;61;20445;-53
2021/08/17 03:24:56;0.00;0.00;0.62;0.00;0.00;0.62;6.30;3.30;;;24.20;35.20;;;;;;2257963;61;20355;-51
2021/08/17 03:27:41;0.00;0.00;0.62;0.00;0.00;0.62;5.13;2.50;;;24.20;35.20;;;;;;2258124;61;20702;-52
2021/08/17 03:30:27;0.00;0.00;0.62;0.00;0.00;0.62;5.73;2.50;;;24.20;35.10;;;;;;2257117;61;20478;-53
2021/08/17 03:33:11;0.00;0.00;0.62;0.00;0.00;0.62;11.83;4.07;;;24.20;35.10;;;;;;2258262;61;20383;-52
2021/08/17 03:35:56;0.00;0.00;0.62;0.00;0.00;0.62;5.60;2.50;;;24.20;35.10;;;;;;2257956;61;20685;-52
2021/08/17 03:38:42;0.00;0.00;0.62;0.00;0.00;0.62;7.63;3.50;;;24.20;35.10;;;;;;2257024;61;20609;-51
2021/08/17 03:41:26;0.00;0.00;0.62;0.00;0.00;0.62;6.80;2.10;;;24.20;35.20;;;;;;2258216;61;20366;-50
2021/08/17 03:44:11;0.00;0.00;0.62;0.00;0.00;0.62;4.53;2.33;;;24.20;35.20;;;;;;2258079;61;20746;-51
2021/08/17 03:46:55;0.00;0.00;0.62;0.00;0.00;0.62;5.60;2.40;;;24.20;35.10;;;;;;2257747;61;20359;-51
2021/08/17 03:49:40;0.00;0.00;0.62;0.00;0.00;0.62;5.13;2.50;;;24.20;35.10;;;;;;2258071;61;20386;-54
2021/08/17 03:52:24;0.00;0.00;0.62;0.00;0.00;0.62;6.00;3.13;;;24.20;35.10;;;;;;2257075;61;20738;-54
2021/08/17 03:55:12;0.00;0.00;0.62;0.00;0.00;0.62;4.20;2.60;;;24.20;35.10;;;;;;2257979;61;20386;-50
2021/08/17 03:57:57;0.00;0.00;0.62;0.00;0.00;0.62;7.57;2.93;;;24.20;35.10;;;;;;2257552;61;20607;-53
2021/08/17 04:00:42;0.00;0.00;0.62;0.00;0.00;0.62;3.90;2.13;;;24.20;35.10;;;;;;2256920;61;20471;-54
2021/08/17 04:03:26;0.00;0.00;0.62;0.00;0.00;0.62;6.03;2.30;;;24.10;35.00;;;;;;2258106;61;20409;-52
2021/08/17 04:06:11;0.00;0.00;0.62;0.00;0.00;0.62;7.20;3.17;;;24.20;35.00;;;;;;2258098;61;20386;-51
2021/08/17 04:08:55;0.00;0.00;0.62;0.00;0.00;0.62;6.53;2.67;;;24.20;34.70;;;;;;2257021;61;20382;-51
2021/08/17 04:11:42;0.00;0.00;0.62;0.00;0.00;0.62;8.03;3.03;;;24.10;34.40;;;;;;2257832;61;20355;-53
2021/08/17 04:14:27;0.00;0.00;0.62;0.00;0.00;0.62;6.37;2.87;;;24.10;34.40;;;;;;2256958;61;20366;-51
2021/08/17 04:17:11;0.00;0.00;0.62;0.00;0.00;0.62;4.40;2.00;;;24.00;34.50;;;;;;2257709;61;20379;-54
2021/08/17 04:19:56;0.00;0.00;0.62;0.00;0.00;0.62;4.40;2.60;;;24.00;34.60;;;;;;2258176;61;20366;-51
2021/08/17 04:22:41;0.00;0.00;0.62;0.00;0.00;0.62;4.90;2.37;;;24.00;34.70;;;;;;2257077;61;20395;-49
2021/08/17 04:25:26;0.00;0.00;0.62;0.00;0.00;0.62;4.53;2.50;;;24.00;34.80;;;;;;2257784;61;20435;-51
2021/08/17 04:28:12;0.00;0.00;0.62;0.00;0.00;0.62;7.60;3.20;;;23.90;34.80;;;;;;2257689;61;20408;-51
2021/08/17 04:30:57;0.00;0.00;0.62;0.00;0.00;0.62;8.47;2.50;;;23.90;35.60;;;;;;2257153;61;20371;-51
2021/08/17 04:33:41;0.00;0.00;0.62;0.00;0.00;0.62;7.80;3.30;;;23.90;34.90;;;;;;2257764;61;20359;-54
2021/08/17 04:36:26;0.00;0.00;0.62;0.00;0.00;0.62;5.50;2.57;;;23.90;34.80;;;;;;2256896;61;20609;-49
2021/08/17 04:39:10;0.00;0.00;0.62;0.00;0.00;0.62;6.30;2.97;;;23.90;34.90;;;;;;2257738;61;20429;-54
2021/08/17 04:41:55;0.00;0.00;0.62;0.00;0.00;0.62;3.83;2.40;;;23.90;34.90;;;;;;2257786;61;20370;-52
2021/08/17 04:44:41;0.00;0.00;0.62;0.00;0.00;0.62;5.10;2.30;;;23.90;34.90;;;;;;2256880;61;20354;-54
2021/08/17 04:47:26;0.00;0.00;0.62;0.00;0.00;0.62;6.80;2.80;;;23.90;34.80;;;;;;2257535;61;20585;-48
2021/08/17 04:50:11;0.00;0.00;0.62;0.00;0.00;0.62;3.57;2.03;;;23.90;34.80;;;;;;2257625;61;20359;-52
2021/08/17 04:52:55;0.00;0.00;0.62;0.00;0.00;0.62;5.37;2.30;;;23.90;34.80;;;;;;2256993;61;20591;-51
2021/08/17 04:55:40;0.00;0.00;0.62;0.00;0.00;0.62;5.63;2.90;;;23.90;34.80;;;;;;2257399;61;20379;-52
2021/08/17 04:58:24;0.00;0.00;0.62;0.00;0.00;0.62;3.90;2.20;;;23.90;34.80;;;;;;2257382;61;20442;-53
2021/08/17 05:01:10;0.00;0.00;0.62;0.00;0.00;0.62;4.90;1.80;;;23.90;34.70;;;;;;2257700;61;20715;-51
2021/08/17 05:03:55;0.00;0.00;0.62;0.00;0.00;0.62;4.90;2.30;;;23.90;34.70;;;;;;2257769;61;20475;-53
2021/08/17 05:06:39;0.00;0.00;0.62;0.00;0.00;0.62;6.83;2.60;;;23.90;34.70;;;;;;2256915;61;20373;-51
2021/08/17 05:09:25;0.00;0.00;0.62;0.00;0.00;0.62;5.40;2.30;;;23.90;34.70;;;;;;2257577;61;20418;-52
2021/08/17 05:12:10;0.00;0.00;0.62;0.00;0.00;0.62;5.40;2.20;;;23.90;34.70;;;;;;2257493;61;20363;-52
2021/08/17 05:14:54;0.00;0.00;0.62;0.00;0.00;0.62;6.93;2.73;;;23.90;34.70;;;;;;2256770;61;20375;-53
2021/08/17 05:17:40;0.00;0.00;0.62;0.00;0.00;0.62;5.27;1.93;;;23.90;34.70;;;;;;2257367;61;20371;-55
2021/08/17 05:20:26;0.00;0.00;0.62;0.00;0.00;0.62;5.17;2.77;;;23.90;34.70;;;;;;2257311;61;20374;-58
2021/08/17 05:23:10;0.00;0.00;0.62;0.00;0.00;0.62;4.27;2.80;;;23.90;34.70;;;;;;2257565;61;20706;-54
2021/08/17 05:25:55;0.00;0.00;0.62;0.00;0.00;0.62;6.50;2.57;;;23.90;34.70;;;;;;2257602;61;20402;-52
2021/08/17 05:28:40;0.00;0.00;0.62;0.00;0.00;0.62;6.97;2.33;;;23.90;34.70;;;;;;2256774;61;20422;-53
2021/08/17 05:31:24;0.00;0.00;0.62;0.00;0.00;0.62;6.27;2.20;;;23.90;34.70;;;;;;2257471;61;20482;-52
2021/08/17 05:34:10;0.00;0.00;0.62;0.00;0.00;0.62;5.73;2.60;;;23.90;34.70;;;;;;2257244;61;20413;-54
2021/08/17 05:36:55;0.00;0.00;0.62;0.00;0.00;0.62;7.20;2.40;;;23.90;34.70;;;;;;2256611;61;20359;-53
2021/08/17 05:39:39;0.00;0.00;0.62;0.00;0.00;0.62;5.47;2.67;;;23.90;34.70;;;;;;2257520;61;20422;-51
2021/08/17 05:42:24;0.00;0.00;0.62;0.00;0.00;0.62;5.33;2.07;;;23.90;34.60;;;;;;2257673;61;20746;-53
2021/08/17 05:45:11;0.00;0.00;0.62;0.00;0.00;0.62;3.60;2.00;;;23.90;34.60;;;;;;2256805;61;20401;-55
2021/08/17 05:47:56;0.00;0.00;0.62;0.00;0.00;0.62;8.17;3.23;;;23.90;34.60;;;;;;2257483;61;20382;-53
2021/08/17 05:50:42;0.00;0.00;0.62;0.00;0.00;0.62;3.77;1.70;;;23.90;34.60;;;;;;2256714;61;20622;-51
2021/08/17 05:53:26;0.00;0.00;0.62;0.00;0.00;0.62;5.03;2.03;;;23.90;34.50;;;;;;2257415;61;20363;-53
2021/08/17 05:56:11;0.00;0.00;0.62;0.00;0.00;0.62;5.23;2.30;;;23.90;34.50;;;;;;2257451;61;20777;-50
2021/08/17 05:58:55;0.00;0.00;0.62;0.00;0.00;0.62;5.43;2.33;;;23.90;34.50;;;;;;2256593;61;20525;-52
2021/08/17 06:01:40;0.00;0.00;0.62;0.00;0.00;0.62;4.20;1.77;;;23.90;34.50;;;;;;2257430;61;20377;-50
2021/08/17 06:04:25;0.00;0.00;0.62;0.00;0.00;0.62;3.00;2.10;;;23.90;34.50;;;;;;2257627;61;20398;-50
2021/08/17 06:07:11;0.00;0.00;0.62;0.00;0.00;0.62;6.40;2.77;;;23.90;34.40;;;;;;2256491;61;20719;-51
2021/08/17 06:09:55;0.00;0.00;0.62;0.00;0.00;0.62;8.80;2.73;;;23.90;34.40;;;;;;2257479;61;20462;-54
2021/08/17 06:12:40;0.00;0.00;0.62;0.00;0.00;0.62;5.93;2.23;;;23.90;34.50;;;;;;2256732;61;20438;-51
2021/08/17 06:15:25;0.00;0.00;0.62;0.00;0.00;0.62;4.33;2.17;;;23.90;34.50;;;;;;2257356;61;20378;-54
2021/08/17 06:18:09;0.00;0.00;0.62;0.00;0.00;0.62;5.23;2.80;;;23.90;34.50;;;;;;2257400;61;20382;-52
2021/08/17 06:20:54;0.00;0.00;0.62;0.00;0.00;0.62;6.97;2.20;;;23.90;34.50;;;;;;2256432;61;20378;-54
2021/08/17 06:23:40;0.00;0.00;0.62;0.00;0.00;0.62;4.50;2.00;;;23.90;34.50;;;;;;2255552;48;20426;-59
2021/08/17 06:26:25;0.00;0.00;0.62;0.00;0.00;0.62;3.40;1.90;;;23.90;34.50;;;;;;2254176;61;20705;-50
2021/08/17 06:29:09;0.00;0.00;0.62;0.00;0.00;0.62;6.10;2.70;;;23.90;34.50;;;;;;2253562;61;20423;-55
2021/08/17 06:31:54;0.00;0.00;0.62;0.00;0.00;0.62;6.43;2.17;;;23.90;34.50;;;;;;2253772;61;20395;-56
2021/08/17 06:34:38;0.00;0.00;0.62;0.00;0.00;0.62;7.20;2.43;;;23.90;34.30;;;;;;2253889;61;20634;-56
2021/08/17 06:37:23;0.00;0.00;0.62;0.00;0.00;0.62;3.83;1.80;;;23.90;34.30;;;;;;2253509;61;20472;-52
2021/08/17 06:40:11;0.00;0.00;0.62;0.00;0.00;0.62;5.73;1.63;;;23.90;34.30;;;;;;2254299;61;20359;-53
2021/08/17 06:42:55;0.00;0.00;0.62;0.00;0.00;0.62;4.37;2.20;;;23.90;34.30;;;;;;2253631;61;20368;-55
2021/08/17 06:45:40;0.00;0.00;0.62;0.00;0.00;0.62;4.63;2.50;;;23.90;34.20;;;;;;2253505;61;20378;-55
2021/08/17 06:48:24;0.00;0.00;0.62;0.00;0.00;0.62;3.73;1.83;;;23.90;34.10;;;;;;2253937;61;20398;-53
2021/08/17 06:51:10;0.00;0.00;0.62;0.00;0.00;0.62;4.30;2.30;;;23.90;34.00;;;;;;2253509;61;20363;-53
2021/08/17 06:53:54;0.00;0.00;0.62;0.00;0.00;0.62;5.97;2.87;;;23.90;34.00;;;;;;2253646;61;20363;-51
2021/08/17 06:56:40;0.00;0.00;0.62;0.00;0.00;0.62;8.10;2.20;;;23.90;33.90;;;;;;2253869;61;20390;-51
2021/08/17 06:59:25;0.00;0.00;0.62;0.00;0.00;0.62;9.07;2.40;;;23.90;33.90;;;;;;2253475;61;20387;-55
2021/08/17 07:02:09;0.00;0.00;0.62;0.00;0.00;0.62;5.80;2.13;;;23.90;34.00;;;;;;2254196;61;20422;-55
2021/08/17 07:04:54;0.00;0.00;0.62;0.00;0.00;0.62;6.60;2.47;;;23.80;33.90;;;;;;2253619;61;20391;-57
2021/08/17 07:07:39;0.00;0.00;0.62;0.00;0.00;0.62;3.73;1.97;;;23.80;33.90;;;;;;2253405;61;20359;-50
2021/08/17 07:10:24;0.00;0.00;0.62;0.00;0.00;0.62;9.90;2.30;;;23.80;33.90;;;;;;2254007;61;20427;-54
2021/08/17 07:13:10;0.00;0.00;0.62;0.00;0.00;0.62;5.03;2.13;;;23.80;33.80;;;;;;2253693;61;20395;-56
2021/08/17 07:15:55;0.00;0.00;0.62;0.00;0.00;0.62;4.60;1.73;;;23.80;33.90;;;;;;2253474;61;20754;-56
2021/08/17 07:18:40;0.00;0.00;0.62;0.00;0.00;0.62;6.30;2.73;;;23.80;33.90;;;;;;2253884;61;20620;-54
2021/08/17 07:21:25;0.00;0.00;0.62;0.00;0.00;0.62;5.03;2.13;;;23.80;34.00;;;;;;2253469;61;20588;-55
2021/08/17 07:24:09;0.00;0.00;0.62;0.00;0.00;0.62;5.23;2.10;;;23.80;34.00;;;;;;2254015;61;20402;-55
2021/08/17 07:26:54;0.00;0.00;0.62;0.00;0.00;0.62;5.40;2.23;;;23.80;34.10;;;;;;2253672;61;20363;-55
2021/08/17 07:29:40;0.00;0.00;0.62;0.00;0.00;0.62;5.30;2.03;;;23.90;34.20;;;;;;2253497;61;20383;-51
2021/08/17 07:32:25;0.00;0.00;0.62;0.00;0.00;0.62;5.20;2.07;;;23.90;34.10;;;;;;2253717;61;20367;-56
2021/08/17 07:35:12;0.00;0.00;0.62;0.00;0.00;0.62;3.83;1.83;;;23.90;34.10;;;;;;2253202;61;20471;-53
2021/08/17 07:37:57;0.00;0.00;0.62;0.00;0.00;0.62;5.53;2.03;;;23.90;34.00;;;;;;2253310;61;20380;-51
2021/08/17 07:40:42;0.00;0.00;0.62;0.00;0.00;0.62;6.10;2.00;;;23.90;34.00;;;;;;2253925;61;20419;-55
2021/08/17 07:43:27;0.00;0.00;0.62;0.00;0.00;0.62;6.40;2.30;;;23.90;34.00;;;;;;2253698;61;20384;-53
2021/08/17 07:46:13;0.00;0.00;0.62;0.00;0.00;0.62;2.90;1.87;;;24.00;34.10;;;;;;2253557;61;20355;-55
2021/08/17 07:48:58;0.00;0.00;0.62;0.00;0.00;0.62;7.43;2.37;;;24.00;34.10;;;;;;2253013;61;20388;-52
2021/08/17 07:51:43;0.00;0.00;0.62;0.00;0.00;0.62;8.37;1.70;;;24.00;34.10;;;;;;2253415;61;20513;-51
2021/08/17 07:54:27;0.00;0.00;0.62;0.00;0.00;0.62;5.73;2.43;;;24.00;34.10;;;;;;2253826;61;20360;-54
2021/08/17 07:57:12;0.00;0.00;0.62;0.00;0.00;0.62;3.43;1.77;;;24.10;34.10;;;;;;2253505;61;20363;-49
2021/08/17 07:59:57;0.00;0.00;0.62;0.00;0.00;0.62;4.37;2.10;;;24.10;34.10;;;;;;2253362;61;20683;-51
2021/08/17 08:02:42;0.00;0.00;0.62;0.00;0.00;0.62;6.47;2.83;;;24.10;34.00;;;;;;2253816;61;20716;-55
2021/08/17 08:05:27;0.00;0.00;0.62;0.00;0.00;0.62;7.80;2.30;;;24.10;33.90;;;;;;2253728;61;20481;-51
2021/08/17 08:08:12;0.00;0.00;0.62;0.00;0.00;0.62;5.80;2.30;;;24.10;33.90;;;;;;2253509;61;20624;-49
2021/08/17 08:10:56;0.00;0.00;0.62;0.00;0.00;0.62;5.30;2.20;;;24.10;33.80;;;;;;2253522;61;20362;-56
2021/08/17 08:13:41;0.00;0.00;0.62;0.00;0.00;0.62;6.90;2.47;;;24.20;33.70;;;;;;2253475;61;20431;-53
2021/08/17 08:16:26;0.00;0.00;0.62;0.00;0.00;0.62;3.57;1.90;;;24.20;33.80;;;;;;2253647;61;20395;-54
2021/08/17 08:19:12;0.00;0.00;0.62;0.00;0.00;0.62;5.80;2.03;;;24.20;33.70;;;;;;2253546;61;20384;-55
2021/08/17 08:21:56;0.00;0.00;0.62;0.00;0.00;0.62;6.70;2.30;;;24.20;33.80;;;;;;2253313;61;20364;-54
2021/08/17 08:24:41;0.00;0.00;0.62;0.00;0.00;0.62;4.90;2.30;;;24.20;33.80;;;;;;2253350;61;20402;-53
2021/08/17 08:27:25;0.00;0.00;0.62;0.00;0.00;0.62;6.23;2.37;;;24.20;33.70;;;;;;2253462;61;20364;-54
2021/08/17 08:30:11;0.00;0.00;0.62;0.00;0.00;0.62;5.43;2.40;;;24.20;33.70;;;;;;2253287;61;20484;-54
2021/08/17 08:32:55;0.00;0.00;0.62;0.00;0.00;0.62;4.70;2.83;;;24.30;33.80;;;;;;2253875;61;20416;-51
2021/08/17 08:35:41;0.00;0.00;0.62;0.00;0.00;0.62;4.00;1.97;;;24.30;33.80;;;;;;2253111;61;20404;-55
2021/08/17 08:38:26;0.00;0.00;0.62;0.00;0.00;0.62;5.53;2.53;;;24.30;33.70;;;;;;2253234;61;20503;-51
2021/08/17 08:41:16;0.00;0.00;0.62;0.00;0.00;0.62;7.17;3.07;;;24.30;33.70;;;;;;2253551;61;20618;-53
2021/08/17 08:44:01;0.00;0.00;0.62;0.00;0.00;0.62;4.13;1.90;;;24.30;33.60;;;;;;2253141;61;20739;-56
2021/08/17 08:46:46;0.00;0.00;0.62;0.00;0.00;0.62;5.80;3.00;;;24.40;33.80;;;;;;2253682;61;20451;-56
2021/08/17 08:49:33;0.00;0.00;0.62;0.00;0.00;0.62;6.07;2.57;;;24.40;33.50;;;;;;2253404;61;20747;-54
2021/08/17 08:52:20;0.00;0.00;0.62;0.00;0.00;0.62;7.80;2.33;;;24.40;33.30;;;;;;2253226;61;20404;-56
2021/08/17 08:55:06;0.00;0.00;0.62;0.00;0.00;0.62;6.47;2.97;;;24.40;33.10;;;;;;2253643;61;20396;-56
2021/08/17 08:57:51;0.00;0.00;0.62;0.00;0.00;0.62;6.50;2.90;;;24.40;33.10;;;;;;2253033;61;20739;-56
2021/08/17 09:00:36;0.00;0.00;0.62;0.00;0.00;0.62;7.10;3.20;;;24.40;33.10;;;;;;2253685;61;20368;-57
2021/08/17 09:03:41;0.00;0.00;0.62;0.00;0.00;0.62;6.57;3.00;;;24.40;33.10;;;;;;2253413;61;20720;-54
2021/08/17 09:06:27;0.00;0.00;0.62;0.00;0.00;0.62;4.87;2.60;;;24.40;33.10;;;;;;2253149;61;20411;-54
2021/08/17 09:09:16;0.00;0.00;0.62;0.00;0.00;0.62;7.07;2.70;;;24.40;33.20;;;;;;2253669;61;20595;-55
2021/08/17 09:12:01;0.00;0.00;0.62;0.00;0.00;0.62;7.03;3.13;;;24.40;33.20;;;;;;2253302;61;20372;-50
2021/08/17 09:14:46;0.00;0.00;0.62;0.00;0.00;0.62;7.40;3.90;;;24.40;33.00;;;;;;2253401;61;20423;-50
2021/08/17 09:17:30;0.00;0.00;0.62;0.00;0.00;0.62;5.93;2.97;;;24.50;33.00;;;;;;2253437;61;20380;-57
2021/08/17 09:20:26;0.00;0.00;0.62;0.00;0.00;0.62;4.17;2.47;;;24.40;33.00;;;;;;2253082;61;20572;-54
2021/08/17 09:23:23;0.00;0.00;0.62;0.00;0.00;0.62;7.20;2.63;;;24.40;33.00;;;;;;2253717;61;20442;-54
2021/08/17 09:26:26;0.00;0.00;0.62;0.00;0.00;0.62;5.10;2.57;;;24.40;33.10;;;;;;2253293;61;20363;-50
2021/08/17 09:29:19;0.00;0.00;0.62;0.00;0.00;0.62;5.27;3.07;;;24.40;33.10;;;;;;2253303;61;20430;-51
2021/08/17 09:32:14;0.00;0.00;0.62;0.00;0.00;0.62;6.53;3.40;;;24.50;33.20;;;;;;2253641;61;20443;-53
2021/08/17 09:35:02;0.00;0.00;0.62;0.00;0.00;0.62;5.93;3.00;;;24.40;33.10;;;;;;2252919;61;20360;-51
2021/08/17 09:38:05;0.00;0.00;0.62;0.00;0.00;0.62;4.53;3.27;;;24.50;33.20;;;;;;2253512;61;20383;-51
2021/08/17 09:40:49;0.00;0.00;0.62;0.00;0.00;0.62;3.83;3.10;;;24.50;33.30;;;;;;2253396;61;20487;-53
2021/08/17 09:43:35;0.00;0.00;0.62;0.00;0.00;0.62;5.20;2.70;;;24.50;33.20;;;;;;2253068;61;20359;-53
2021/08/17 09:46:27;0.00;0.00;0.62;0.00;0.00;0.62;7.50;3.20;;;24.50;33.20;;;;;;2253541;61;20360;-53
2021/08/17 09:49:19;0.00;0.00;0.62;0.00;0.00;0.62;5.60;2.73;;;24.50;33.20;;;;;;2253204;61;20443;-51
2021/08/17 09:52:14;0.00;0.00;0.62;0.00;0.00;0.62;7.80;3.43;;;24.50;33.20;;;;;;2253608;61;20668;-52
2021/08/17 09:55:11;0.00;0.00;0.62;0.00;0.00;0.62;4.40;2.90;;;24.50;33.10;;;;;;2253189;61;20466;-53
2021/08/17 09:58:16;0.00;0.00;0.62;0.00;0.00;0.62;6.27;3.30;;;24.50;33.10;;;;;;2252782;61;20655;-53
2021/08/17 10:01:05;0.00;0.00;0.62;0.00;0.00;0.62;5.93;3.37;;;24.60;33.30;;;;;;2253512;61;20588;-54
2021/08/17 10:03:50;0.00;0.00;0.62;0.00;0.00;0.62;8.00;3.87;;;24.50;33.20;;;;;;2253308;61;20363;-54
2021/08/17 10:06:34;0.00;0.00;0.62;0.00;0.00;0.62;6.70;3.47;;;24.50;33.10;;;;;;2253280;61;20415;-53
2021/08/17 10:09:19;0.00;0.00;0.62;0.00;0.00;0.62;4.10;3.00;;;24.60;33.20;;;;;;2253129;61;20419;-53
2021/08/17 10:12:06;0.00;0.00;0.62;0.00;0.00;0.62;7.50;2.73;;;24.60;33.10;;;;;;2252902;61;20719;-54
2021/08/17 10:14:51;0.00;0.00;0.62;0.00;0.00;0.62;5.17;3.30;;;24.60;33.10;;;;;;2253348;61;20460;-53
2021/08/17 10:17:37;0.00;0.00;0.62;0.00;0.00;0.62;4.93;2.93;;;24.60;33.10;;;;;;2252955;61;20589;-55
2021/08/17 10:20:21;0.00;0.00;0.62;0.00;0.00;0.62;5.87;3.60;;;24.60;33.10;;;;;;2253039;61;20403;-54
2021/08/17 10:23:08;0.00;0.00;0.62;0.00;0.00;0.62;4.87;3.73;;;24.60;33.00;;;;;;2253421;61;20379;-54
2021/08/17 10:25:54;0.00;0.00;0.62;0.00;0.00;0.62;5.50;3.60;;;24.60;33.00;;;;;;2253120;61;20364;-54
2021/08/17 10:28:42;0.00;0.00;0.62;0.00;0.00;0.62;4.67;2.87;;;24.60;33.00;;;;;;2252906;61;20399;-53
2021/08/17 10:31:31;0.00;0.00;0.62;0.00;0.00;0.62;7.27;3.47;;;24.70;33.10;;;;;;2253380;61;20739;-53
2021/08/17 10:34:17;0.00;0.00;0.62;0.00;0.00;0.62;6.13;2.80;;;24.70;33.00;;;;;;2252898;61;20379;-53
2021/08/17 10:37:19;0.00;0.00;0.62;0.00;0.00;0.62;7.80;3.60;;;24.70;33.00;;;;;;2253314;61;20613;-54
2021/08/17 10:40:04;0.00;0.00;0.62;0.00;0.00;0.62;5.70;3.37;;;24.70;32.90;;;;;;2253084;61;20394;-52
2021/08/17 10:42:51;0.00;0.00;0.62;0.00;0.00;0.62;6.10;3.90;;;24.70;32.90;;;;;;2252989;61;20363;-53
2021/08/17 10:45:49;0.00;0.00;0.62;0.00;0.00;0.62;6.40;3.50;;;24.70;32.80;;;;;;2253442;61;20423;-54
2021/08/17 10:48:54;0.00;0.00;0.62;0.00;0.00;0.62;5.20;3.97;;;24.70;32.70;;;;;;2252361;61;20379;-57
2021/08/17 10:52:01;0.00;0.00;0.62;0.00;0.00;0.62;5.17;4.07;;;24.70;32.50;;;;;;2253585;61;20460;-52
2021/08/17 10:54:45;0.00;0.00;0.62;0.00;0.00;0.62;5.40;4.10;;;24.70;32.50;;;;;;2252929;61;20362;-54